createdAt,value
2017-10-21T00:01:35.190Z,68.75
2017-10-21T00:04:02.819Z,68.74
2017-10-21T00:06:30.492Z,68.72
2017-10-21T00:08:58.427Z,68.84
2017-10-21T00:11:26.064Z,68.73
2017-10-21T00:13:53.637Z,68.61
2017-10-21T00:16:22.348Z,68.78
2017-10-21T00:18:50.556Z,68.79
2017-10-21T00:21:18.209Z,69.89
2017-10-21T00:23:45.756Z,69.17
2017-10-21T00:26:14.357Z,69.43
2017-10-21T00:28:42.424Z,69.46
2017-10-21T00:31:11.741Z,69.48
2017-10-21T00:33:40.517Z,69.11
2017-10-21T00:36:09.936Z,69.39
2017-10-21T00:38:40.675Z,68.80
2017-10-21T00:41:10.738Z,68.91
2017-10-21T00:43:42.445Z,69.04
2017-10-21T00:46:10.823Z,69.26
2017-10-21T00:48:40.166Z,68.91
2017-10-21T00:51:10.593Z,69.43
2017-10-21T00:53:38.871Z,69.26
2017-10-21T00:56:06.429Z,69.11
2017-10-21T00:58:34.093Z,69.82
2017-10-21T01:01:01.735Z,69.28
2017-10-21T01:03:30.476Z,68.87
2017-10-21T01:05:58.958Z,69.01
2017-10-21T01:08:26.604Z,69.04
2017-10-21T01:10:57.841Z,69.13
2017-10-21T01:13:28.780Z,69.32
2017-10-21T01:15:57.472Z,69.37
2017-10-21T01:18:25.061Z,69.50
2017-10-21T01:20:52.625Z,69.93
2017-10-21T01:23:21.574Z,70.33
2017-10-21T01:25:49.398Z,70.79
2017-10-21T01:28:17.271Z,69.95
2017-10-21T01:30:45.036Z,69.66
2017-10-21T01:33:12.735Z,69.54
2017-10-21T01:35:41.433Z,70.01
2017-10-21T01:38:09.121Z,69.79
2017-10-21T01:40:36.805Z,69.60
2017-10-21T01:43:05.035Z,69.77
2017-10-21T01:45:33.541Z,69.51
2017-10-21T01:48:01.955Z,70.05
2017-10-21T01:50:29.546Z,70.46
2017-10-21T01:52:57.225Z,70.60
2017-10-21T01:55:24.982Z,70.95
2017-10-21T01:57:52.818Z,70.71
2017-10-21T02:00:21.122Z,70.39
2017-10-21T02:02:49.663Z,70.77
2017-10-21T02:05:17.540Z,71.13
2017-10-21T02:07:45.188Z,70.89
2017-10-21T02:10:12.839Z,70.74
2017-10-21T02:12:40.562Z,71.23
2017-10-21T02:15:08.345Z,71.43
2017-10-21T02:17:37.463Z,71.21
2017-10-21T02:20:05.472Z,71.41
2017-10-21T02:22:34.852Z,71.16
2017-10-21T02:25:02.531Z,71.00
2017-10-21T02:27:30.291Z,71.14
2017-10-21T02:29:57.863Z,70.54
2017-10-21T02:32:25.794Z,70.60
2017-10-21T02:34:53.613Z,70.85
2017-10-21T02:37:21.208Z,71.11
2017-10-21T02:39:49.091Z,71.12
2017-10-21T02:42:17.470Z,70.70
2017-10-21T02:44:45.026Z,70.60
2017-10-21T02:47:13.343Z,70.65
2017-10-21T02:49:41.525Z,70.69
2017-10-21T02:52:15.647Z,71.10
2017-10-21T02:54:44.253Z,71.65
2017-10-21T02:57:12.275Z,71.22
2017-10-21T02:59:40.050Z,71.28
2017-10-21T03:02:11.098Z,71.66
2017-10-21T03:04:38.765Z,71.88
2017-10-21T03:07:06.546Z,71.84
2017-10-21T03:09:37.013Z,71.27
2017-10-21T03:12:07.760Z,71.21
2017-10-21T03:14:35.608Z,70.98
2017-10-21T03:17:03.275Z,71.01
2017-10-21T03:19:30.886Z,71.54
2017-10-21T03:21:58.496Z,71.68
2017-10-21T03:24:26.186Z,71.89
2017-10-21T03:26:53.833Z,71.65
2017-10-21T03:29:22.742Z,72.32
2017-10-21T03:31:51.420Z,72.76
2017-10-21T03:34:19.231Z,73.05
2017-10-21T03:36:48.132Z,72.44
2017-10-21T03:39:15.799Z,73.10
2017-10-21T03:41:44.121Z,73.17
2017-10-21T03:44:11.718Z,73.31
2017-10-21T03:46:39.490Z,72.85
2017-10-21T03:49:07.036Z,72.43
2017-10-21T03:51:38.045Z,72.28
2017-10-21T03:54:05.967Z,72.03
2017-10-21T03:56:33.586Z,72.78
2017-10-21T03:59:01.492Z,72.72
2017-10-21T04:01:29.154Z,72.57
2017-10-21T04:03:56.881Z,72.04
2017-10-21T04:06:24.473Z,71.88
2017-10-21T04:08:55.548Z,71.61
2017-10-21T04:11:23.019Z,71.62
2017-10-21T04:13:50.641Z,71.22
2017-10-21T04:16:18.631Z,71.41
2017-10-21T04:18:46.390Z,70.96
2017-10-21T04:21:14.075Z,70.95
2017-10-21T04:23:41.654Z,71.16
2017-10-21T04:26:10.010Z,72.41
2017-10-21T04:28:37.664Z,72.88
2017-10-21T04:31:05.293Z,72.81
2017-10-21T04:33:34.606Z,72.90
2017-10-21T04:36:09.057Z,72.95
2017-10-21T04:38:37.439Z,73.06
2017-10-21T04:41:09.437Z,73.00
2017-10-21T04:43:43.866Z,72.78
2017-10-21T04:46:16.614Z,72.79
2017-10-21T04:48:47.947Z,72.73
2017-10-21T04:51:15.688Z,73.40
2017-10-21T04:53:45.008Z,73.47
2017-10-21T04:56:13.354Z,73.65
2017-10-21T04:58:41.754Z,73.49
2017-10-21T05:01:10.324Z,73.14
2017-10-21T05:03:38.665Z,73.49
2017-10-21T05:06:07.103Z,73.05
2017-10-21T05:08:34.978Z,73.15
2017-10-21T05:11:04.339Z,73.07
2017-10-21T05:13:34.033Z,73.24
2017-10-21T05:16:02.696Z,73.11
2017-10-21T05:18:31.276Z,73.08
2017-10-21T05:20:58.999Z,72.88
2017-10-21T05:23:27.411Z,72.96
2017-10-21T05:25:55.459Z,73.53
2017-10-21T05:28:23.428Z,74.37
2017-10-21T05:30:51.339Z,73.50
2017-10-21T05:33:21.522Z,73.24
2017-10-21T05:35:49.178Z,73.49
2017-10-21T05:38:17.274Z,74.22
2017-10-21T05:40:44.940Z,74.59
2017-10-21T05:43:12.790Z,74.21
2017-10-21T05:45:40.415Z,73.41
2017-10-21T05:48:08.105Z,73.63
2017-10-21T05:50:36.334Z,73.49
2017-10-21T05:53:04.017Z,73.65
2017-10-21T05:55:32.364Z,73.85
2017-10-21T05:58:00.212Z,73.60
2017-10-21T06:00:27.829Z,73.48
2017-10-21T06:02:55.429Z,73.50
2017-10-21T06:05:23.212Z,73.54
2017-10-21T06:07:50.978Z,73.20
2017-10-21T06:10:18.559Z,73.11
2017-10-21T06:12:46.166Z,72.87
2017-10-21T06:15:14.086Z,72.95
2017-10-21T06:17:41.808Z,72.69
2017-10-21T06:20:09.514Z,72.75
2017-10-21T06:22:37.163Z,72.85
2017-10-21T06:25:04.981Z,72.69
2017-10-21T06:27:32.633Z,72.36
2017-10-21T06:30:00.426Z,72.39
2017-10-21T06:32:28.395Z,72.65
2017-10-21T06:34:56.031Z,72.39
2017-10-21T06:37:24.088Z,72.28
2017-10-21T06:39:51.603Z,71.66
2017-10-21T06:42:19.430Z,65.73
2017-10-21T06:44:47.498Z,60.81
2017-10-21T06:47:15.012Z,60.86
2017-10-21T06:49:42.592Z,62.23
2017-10-21T06:52:10.086Z,61.16
2017-10-21T06:54:37.913Z,57.55
2017-10-21T06:57:06.825Z,56.41
2017-10-21T06:59:34.519Z,52.96
2017-10-21T07:02:02.074Z,53.67
2017-10-21T07:04:29.770Z,55.29
2017-10-21T07:06:57.388Z,54.90
2017-10-21T07:09:26.940Z,53.46
2017-10-21T07:11:56.682Z,52.60
2017-10-21T07:14:24.265Z,54.59
2017-10-21T07:16:51.962Z,55.49
2017-10-21T07:19:19.637Z,55.90
2017-10-21T07:21:47.419Z,55.50
2017-10-21T07:24:15.228Z,56.10
2017-10-21T07:26:43.022Z,57.26
2017-10-21T07:29:11.100Z,57.38
2017-10-21T07:31:38.656Z,56.07
2017-10-21T07:34:06.201Z,55.62
2017-10-21T07:36:33.771Z,56.50
2017-10-21T07:39:06.812Z,54.83
2017-10-21T07:41:34.390Z,53.22
2017-10-21T07:44:01.970Z,54.40
2017-10-21T07:46:29.519Z,48.84
2017-10-21T07:48:57.017Z,50.01
2017-10-21T07:51:24.546Z,53.02
2017-10-21T07:53:52.094Z,53.87
2017-10-21T07:56:19.629Z,55.62
2017-10-21T07:58:47.152Z,54.90
2017-10-21T08:01:15.663Z,49.17
2017-10-21T08:03:43.237Z,49.00
2017-10-21T08:06:10.766Z,47.86
2017-10-21T08:08:38.348Z,44.25
2017-10-21T08:11:05.914Z,39.67
2017-10-21T08:13:33.598Z,37.80
2017-10-21T08:16:01.125Z,38.89
2017-10-21T08:18:28.634Z,36.54
2017-10-21T08:20:56.763Z,35.22
2017-10-21T08:23:24.263Z,33.46
2017-10-21T08:25:52.740Z,33.60
2017-10-21T08:28:22.183Z,32.66
2017-10-21T08:30:49.762Z,32.88
2017-10-21T08:33:17.465Z,34.61
2017-10-21T08:35:45.104Z,38.75
2017-10-21T08:38:12.682Z,42.98
2017-10-21T08:40:40.189Z,46.19
2017-10-21T08:43:07.836Z,49.23
2017-10-21T08:45:35.335Z,49.73
2017-10-21T08:48:03.813Z,49.56
2017-10-21T08:50:32.723Z,49.16
2017-10-21T08:53:00.861Z,48.95
2017-10-21T08:55:28.468Z,48.60
2017-10-21T09:00:30.773Z,49.90
2017-10-21T09:02:58.290Z,50.82
2017-10-21T09:05:25.950Z,52.13
2017-10-21T09:07:53.549Z,52.05
2017-10-21T09:10:22.045Z,52.26
2017-10-21T09:12:49.659Z,51.49
2017-10-21T09:15:17.614Z,52.37
2017-10-21T09:17:45.192Z,52.61
2017-10-21T09:20:12.736Z,52.02
2017-10-21T09:22:40.290Z,51.50
2017-10-21T09:25:08.310Z,51.76
2017-10-21T09:27:35.893Z,51.85
2017-10-21T09:30:03.604Z,52.60
2017-10-21T09:32:31.300Z,52.84
2017-10-21T09:34:58.882Z,51.75
2017-10-21T09:37:26.393Z,49.48
2017-10-21T09:39:54.889Z,50.28
2017-10-21T09:42:22.442Z,51.58
2017-10-21T09:44:50.003Z,53.23
2017-10-21T09:47:17.822Z,53.30
2017-10-21T09:49:45.346Z,53.01
2017-10-21T09:52:13.323Z,53.39
2017-10-21T09:54:40.931Z,53.77
2017-10-21T09:57:08.525Z,52.80
2017-10-21T09:59:36.022Z,50.05
2017-10-21T10:02:04.258Z,47.29
2017-10-21T10:04:31.879Z,47.96
2017-10-21T10:06:59.477Z,47.26
2017-10-21T10:09:27.076Z,45.57
2017-10-21T10:11:54.672Z,43.57
2017-10-21T10:14:22.229Z,41.77
2017-10-21T10:16:49.737Z,42.20
2017-10-21T10:19:17.245Z,43.30
2017-10-21T10:21:44.755Z,43.24
2017-10-21T10:24:12.258Z,43.83
2017-10-21T10:26:39.783Z,44.22
2017-10-21T10:29:08.232Z,45.27
2017-10-21T10:31:35.818Z,46.64
2017-10-21T10:34:03.335Z,46.62
2017-10-21T10:36:30.963Z,47.61
2017-10-21T10:38:58.520Z,49.27
2017-10-21T10:41:26.289Z,48.26
2017-10-21T10:43:53.794Z,47.21
2017-10-21T10:46:21.407Z,44.75
2017-10-21T10:48:49.074Z,43.97
2017-10-21T10:51:16.870Z,45.54
2017-10-21T10:53:44.434Z,45.31
2017-10-21T10:56:11.949Z,46.35
2017-10-21T10:58:39.739Z,47.29
2017-10-21T11:01:07.285Z,46.80
2017-10-21T11:03:34.983Z,46.13
2017-10-21T11:06:02.598Z,46.61
2017-10-21T11:08:30.102Z,45.55
2017-10-21T11:10:57.699Z,45.85
2017-10-21T11:13:25.210Z,46.20
2017-10-21T11:15:53.020Z,46.14
2017-10-21T11:18:20.562Z,46.49
2017-10-21T11:20:48.991Z,47.62
2017-10-21T11:23:16.501Z,47.10
2017-10-21T11:25:44.123Z,47.60
2017-10-21T11:28:12.553Z,47.43
2017-10-21T11:30:40.301Z,47.58
2017-10-21T11:33:08.836Z,47.54
2017-10-21T11:35:36.398Z,47.65
2017-10-21T11:38:03.967Z,47.97
2017-10-21T11:40:31.737Z,47.58
2017-10-21T11:42:59.251Z,47.68
2017-10-21T11:45:26.894Z,47.40
2017-10-21T11:47:54.529Z,47.88
2017-10-21T11:50:22.105Z,47.63
2017-10-21T11:52:49.667Z,47.78
2017-10-21T11:55:17.419Z,48.51
2017-10-21T11:57:45.679Z,48.43
2017-10-21T12:00:13.256Z,49.50
2017-10-21T12:02:40.853Z,49.14
2017-10-21T12:05:08.534Z,49.21
2017-10-21T12:07:36.063Z,49.16
2017-10-21T12:10:04.062Z,49.33
2017-10-21T12:12:32.125Z,49.52
2017-10-21T12:15:00.270Z,49.16
2017-10-21T12:17:28.222Z,50.12
2017-10-21T12:19:56.884Z,50.44
2017-10-21T12:22:26.003Z,50.06
2017-10-21T12:24:53.726Z,49.48
2017-10-21T12:27:21.821Z,50.39
2017-10-21T12:29:49.773Z,50.76
2017-10-21T12:32:33.364Z,50.57
2017-10-21T12:35:03.498Z,50.08
2017-10-21T12:37:36.092Z,50.56
2017-10-21T12:40:05.139Z,49.90
2017-10-21T12:42:33.923Z,49.72
2017-10-21T12:45:02.286Z,49.69
2017-10-21T12:47:30.555Z,50.35
2017-10-21T12:50:02.622Z,49.86
2017-10-21T12:52:31.356Z,48.98
2017-10-21T12:54:58.992Z,48.99
2017-10-21T12:57:27.222Z,48.01
2017-10-21T12:59:54.961Z,47.76
2017-10-21T13:02:22.778Z,47.05
2017-10-21T13:04:52.370Z,47.80
2017-10-21T13:07:20.149Z,47.73
2017-10-21T13:09:47.761Z,46.24
2017-10-21T13:12:15.365Z,46.65
2017-10-21T13:14:42.894Z,46.80
2017-10-21T13:17:10.432Z,47.70
2017-10-21T13:19:38.918Z,49.04
2017-10-21T13:22:06.456Z,48.93
2017-10-21T13:24:33.970Z,49.57
2017-10-21T13:27:01.521Z,50.09
2017-10-21T13:29:29.033Z,49.75
2017-10-21T13:31:56.555Z,50.22
2017-10-21T13:34:24.221Z,49.60
2017-10-21T13:36:51.839Z,49.69
2017-10-21T13:39:19.397Z,50.02
2017-10-21T13:41:46.953Z,50.66
2017-10-21T13:44:14.497Z,50.64
2017-10-21T13:46:42.030Z,51.12
2017-10-21T13:49:09.577Z,51.33
2017-10-21T13:51:37.111Z,50.89
2017-10-21T13:54:04.617Z,50.42
2017-10-21T13:56:32.214Z,50.63
2017-10-21T13:58:59.710Z,50.22
2017-10-21T14:01:27.487Z,50.56
2017-10-21T14:03:55.175Z,50.48
2017-10-21T14:06:22.773Z,50.49
2017-10-21T14:08:50.377Z,50.75
2017-10-21T14:11:17.981Z,50.78
2017-10-21T14:13:45.998Z,51.51
2017-10-21T14:16:13.601Z,51.37
2017-10-21T14:18:41.313Z,51.35
2017-10-21T14:21:08.888Z,50.98
2017-10-21T14:23:37.429Z,51.04
2017-10-21T14:26:04.950Z,51.00
2017-10-21T14:28:32.544Z,51.33
2017-10-21T14:31:00.150Z,51.02
2017-10-21T14:33:27.717Z,51.72
2017-10-21T14:35:55.262Z,51.11
2017-10-21T14:38:22.754Z,51.10
2017-10-21T14:40:51.263Z,50.66
2017-10-21T14:43:18.864Z,51.69
2017-10-21T14:45:46.467Z,52.24
2017-10-21T14:48:14.007Z,53.41
2017-10-21T14:50:41.512Z,53.81
2017-10-21T14:53:09.048Z,53.62
2017-10-21T14:55:36.718Z,53.04
2017-10-21T14:58:04.214Z,53.31
2017-10-21T15:00:31.890Z,53.69
2017-10-21T15:02:59.460Z,54.80
2017-10-21T15:05:26.968Z,54.46
2017-10-21T15:07:54.560Z,54.12
2017-10-21T15:10:22.120Z,54.08
2017-10-21T15:12:49.894Z,54.89
2017-10-21T15:15:18.310Z,54.55
2017-10-21T15:17:45.911Z,54.29
2017-10-21T15:20:13.401Z,55.30
2017-10-21T15:22:40.916Z,56.76
2017-10-21T15:25:08.501Z,56.44
2017-10-21T15:27:36.078Z,56.79
2017-10-21T15:30:03.732Z,57.48
2017-10-21T15:32:32.308Z,56.64
2017-10-21T15:34:59.908Z,56.83
2017-10-21T15:37:27.713Z,56.94
2017-10-21T15:39:56.458Z,57.84
2017-10-21T15:42:24.018Z,58.35
2017-10-21T15:44:51.554Z,58.98
2017-10-21T15:47:19.117Z,59.09
2017-10-21T15:49:46.665Z,58.93
2017-10-21T15:52:14.406Z,58.21
2017-10-21T15:54:41.942Z,58.09
2017-10-21T15:57:09.480Z,58.79
2017-10-21T15:59:37.363Z,59.36
2017-10-21T16:02:04.913Z,60.76
2017-10-21T16:04:32.471Z,60.13
2017-10-21T16:07:00.015Z,60.06
2017-10-21T16:09:27.585Z,60.54
2017-10-21T16:11:55.111Z,60.54
2017-10-21T16:14:23.365Z,60.85
2017-10-21T16:16:51.253Z,61.65
2017-10-21T16:19:18.928Z,61.80
2017-10-21T16:21:46.567Z,62.01
2017-10-21T16:24:14.070Z,61.89
2017-10-21T16:26:41.633Z,62.15
2017-10-21T16:29:09.138Z,62.26
2017-10-21T16:31:37.718Z,62.35
2017-10-21T16:34:05.404Z,62.69
2017-10-21T16:36:33.596Z,63.04
2017-10-21T16:39:03.205Z,63.17
2017-10-21T16:41:31.102Z,62.79
2017-10-21T16:43:59.369Z,62.58
2017-10-21T16:46:27.870Z,63.21
2017-10-21T16:48:55.560Z,63.19
2017-10-21T16:51:24.718Z,63.09
2017-10-21T16:53:52.549Z,67.15
2017-10-21T16:56:20.504Z,68.92
2017-10-21T16:58:49.388Z,68.77
2017-10-21T17:01:17.149Z,69.02
2017-10-21T17:03:45.670Z,67.40
2017-10-21T17:06:13.869Z,64.44
2017-10-21T17:08:41.680Z,63.65
2017-10-21T17:11:09.202Z,64.17
2017-10-21T17:13:38.758Z,63.52
2017-10-21T17:16:07.430Z,63.49
2017-10-21T17:18:35.319Z,63.99
2017-10-21T17:21:03.356Z,63.65
2017-10-21T17:23:32.509Z,63.77
2017-10-21T17:26:05.153Z,64.61
2017-10-21T17:28:33.824Z,66.37
2017-10-21T17:31:01.479Z,66.90
2017-10-21T17:33:29.222Z,67.54
2017-10-21T17:35:57.020Z,68.84
2017-10-21T17:38:25.185Z,69.13
2017-10-21T17:40:53.222Z,69.85
2017-10-21T17:43:21.126Z,70.97
2017-10-21T17:45:50.008Z,70.40
2017-10-21T17:48:17.801Z,70.76
2017-10-21T17:50:45.766Z,70.25
2017-10-21T17:53:13.356Z,68.53
2017-10-21T17:55:41.718Z,68.29
2017-10-21T17:58:09.573Z,66.99
2017-10-21T18:00:37.124Z,66.92
2017-10-21T18:03:05.894Z,66.48
2017-10-21T18:05:33.960Z,65.83
2017-10-21T18:08:02.192Z,65.17
2017-10-21T18:10:30.024Z,65.08
2017-10-21T18:12:57.581Z,64.35
2017-10-21T18:15:25.109Z,64.62
2017-10-21T18:17:52.795Z,63.51
2017-10-21T18:20:20.928Z,63.21
2017-10-21T18:22:48.764Z,61.85
2017-10-21T18:25:16.551Z,60.82
2017-10-21T18:27:44.621Z,59.96
2017-10-21T18:30:13.098Z,60.96
2017-10-21T18:32:41.388Z,61.08
2017-10-21T18:35:09.601Z,60.88
2017-10-21T18:37:38.378Z,60.37
2017-10-21T18:40:06.355Z,59.73
2017-10-21T18:42:34.403Z,60.39
2017-10-21T18:45:04.363Z,60.95
2017-10-21T18:47:33.303Z,60.63
2017-10-21T18:50:02.716Z,60.58
2017-10-21T18:52:30.438Z,61.87
2017-10-21T18:54:59.497Z,63.41
2017-10-21T18:57:27.347Z,61.28
2017-10-21T18:59:55.932Z,61.86
2017-10-21T19:02:24.164Z,62.52
2017-10-21T19:04:53.005Z,62.50
2017-10-21T19:07:22.026Z,62.64
2017-10-21T19:09:50.892Z,62.82
2017-10-21T19:12:20.088Z,63.56
2017-10-21T19:14:48.635Z,64.96
2017-10-21T19:17:16.889Z,64.01
2017-10-21T19:19:44.542Z,65.52
2017-10-21T19:22:12.590Z,65.50
2017-10-21T19:24:41.131Z,65.24
2017-10-21T19:27:09.482Z,64.82
2017-10-21T19:29:37.357Z,63.76
2017-10-21T19:32:04.955Z,63.91
2017-10-21T19:34:32.573Z,63.56
2017-10-21T19:37:00.398Z,63.45
2017-10-21T19:39:27.930Z,64.02
2017-10-21T19:41:55.506Z,64.18
2017-10-21T19:44:23.438Z,64.97
2017-10-21T19:46:52.134Z,63.66
2017-10-21T19:49:21.240Z,64.52
2017-10-21T19:51:49.374Z,63.09
2017-10-21T19:54:16.873Z,63.31
2017-10-21T19:56:45.416Z,62.59
2017-10-21T19:59:13.655Z,63.83
2017-10-21T20:01:41.365Z,63.23
2017-10-21T20:04:09.071Z,63.47
2017-10-21T20:06:36.682Z,64.41
2017-10-21T20:09:04.603Z,64.67
2017-10-21T20:11:33.254Z,64.73
2017-10-21T20:14:01.990Z,63.86
2017-10-21T20:16:30.038Z,63.96
2017-10-21T20:18:57.880Z,65.14
2017-10-21T20:21:29.001Z,66.36
2017-10-21T20:23:56.701Z,66.76
2017-10-21T20:26:25.147Z,65.73
2017-10-21T20:28:52.693Z,67.26
2017-10-21T20:31:21.221Z,67.10
2017-10-21T20:33:49.394Z,67.23
2017-10-21T20:36:16.968Z,67.10
2017-10-21T20:38:46.039Z,66.73
2017-10-21T20:41:14.101Z,66.97
2017-10-21T20:43:42.491Z,66.28
2017-10-21T20:46:10.364Z,66.00
2017-10-21T20:48:37.951Z,65.54
2017-10-21T20:51:06.511Z,65.92
2017-10-21T20:53:34.377Z,65.71
2017-10-21T20:56:02.721Z,66.45
2017-10-21T20:58:31.335Z,67.32
2017-10-21T21:00:59.015Z,66.81
2017-10-21T21:03:27.112Z,66.54
2017-10-21T21:05:54.793Z,66.95
2017-10-21T21:08:23.451Z,67.21
2017-10-21T21:10:52.144Z,68.72
2017-10-21T21:13:22.067Z,68.95
2017-10-21T21:15:49.764Z,68.26
2017-10-21T21:18:17.881Z,68.44
2017-10-21T21:20:45.504Z,68.42
2017-10-21T21:23:15.864Z,67.85
2017-10-21T21:25:45.148Z,67.66
2017-10-21T21:28:13.042Z,67.18
2017-10-21T21:30:42.707Z,67.25
2017-10-21T21:33:10.706Z,67.27
2017-10-21T21:35:40.314Z,67.11
2017-10-21T21:38:09.559Z,67.04
2017-10-21T21:40:37.224Z,66.91
2017-10-21T21:43:04.942Z,67.53
2017-10-21T21:45:32.477Z,67.80
2017-10-21T21:48:00.101Z,69.27
2017-10-21T21:50:29.160Z,70.35
2017-10-21T21:52:56.846Z,70.10
2017-10-21T21:55:25.715Z,69.65
2017-10-21T21:57:53.367Z,70.06
2017-10-21T22:00:21.053Z,69.59
2017-10-21T22:02:49.308Z,70.09
2017-10-21T22:05:17.648Z,70.90
2017-10-21T22:07:46.444Z,69.99
2017-10-21T22:10:14.045Z,70.00
2017-10-21T22:12:41.761Z,69.29
2017-10-21T22:15:09.305Z,70.56
2017-10-21T22:17:37.430Z,71.21
2017-10-21T22:20:05.908Z,71.27
2017-10-21T22:22:33.686Z,70.28
2017-10-21T22:25:01.779Z,70.08
2017-10-21T22:27:31.341Z,71.21
2017-10-21T22:29:58.953Z,72.68
2017-10-21T22:32:27.131Z,72.75
2017-10-21T22:34:55.314Z,73.00
2017-10-21T22:37:22.931Z,74.29
2017-10-21T22:39:50.535Z,74.37
2017-10-21T22:42:18.188Z,74.19
2017-10-21T22:44:46.019Z,74.26
2017-10-21T22:47:14.534Z,74.45
2017-10-21T22:49:42.168Z,75.21
2017-10-21T22:52:10.585Z,76.17
2017-10-21T22:54:38.186Z,75.64
2017-10-21T22:57:06.073Z,75.39
2017-10-21T22:59:33.870Z,75.84
2017-10-21T23:02:01.433Z,76.23
2017-10-21T23:04:28.976Z,76.86
2017-10-21T23:06:56.661Z,76.08
2017-10-21T23:09:24.308Z,75.86
2017-10-21T23:11:51.851Z,75.69
2017-10-21T23:14:19.525Z,76.35
2017-10-21T23:16:47.165Z,75.18
2017-10-21T23:19:14.699Z,74.87
2017-10-21T23:21:42.235Z,75.36
2017-10-21T23:24:09.877Z,75.49
2017-10-21T23:26:38.362Z,75.78
2017-10-21T23:29:09.766Z,75.61
2017-10-21T23:31:37.283Z,76.45
2017-10-21T23:34:05.161Z,76.18
2017-10-21T23:36:32.758Z,77.14
2017-10-21T23:39:00.365Z,77.07
2017-10-21T23:41:28.705Z,76.93
2017-10-21T23:43:58.559Z,76.98
2017-10-21T23:46:27.646Z,76.64
2017-10-21T23:48:55.268Z,76.75
2017-10-21T23:51:22.900Z,76.96
2017-10-21T23:53:50.481Z,76.39
2017-10-21T23:56:18.161Z,75.79
2017-10-21T23:58:46.533Z,75.96
